Terminal Aerodrome Forecast
Issued by NWS

Home | Current Version | Previous Version | Text Only | Print | Product List | Glossary On
Versions: 1 2 3 4 5 6 7 8 9 10 11 12 13 14 15 16 17 18 19 20
073
FTUS43 KMQT 272320
TAFCMX
TAF
KCMX 272320Z 2800/2824 10005KT P6SM BKN150
     FM281100 16005KT P6SM VCSH OVC045
     FM281400 16003KT 2SM -RA OVC015
     FM281600 12004KT 1 1/2SM -RASNPL BR OVC008
     FM281800 36007KT 1 1/2SM -RASN BR OVC003
     FM282000 02011G18KT 2SM -SNRA OVC003
     FM282200 02014G23KT 2SM -SN OVC008=

USA.gov is the U.S. government's official web portal to all federal, state and local government web resources and services.